Terminal Aerodrome Forecast
Issued by NWS Pueblo, CO

Home | Current Version | Previous Version | Text Only | Print | Product List | Glossary On
Versions: 1 2 3 4 5 6 7 8 9 10 11
000
FTUS45 KPUB 112320
TAFPUB
TAF
KPUB 112320Z 1200/1224 12011KT P6SM SKC
     FM120200 VRB04KT P6SM SKC
     FM122000 12008KT P6SM SKC=

USA.gov is the U.S. government's official web portal to all federal, state and local government web resources and services.